sensor_id;sensor_type;location;lat;lon;timestamp;P1;durP1;ratioP1;P2;durP2;ratioP2
4500;SDS011;2263;54.654;9.410;2022-10-20T00:01:10;4.77;;;1.10;;
4500;SDS011;2263;54.654;9.410;2022-10-20T00:03:38;1.20;;;0.80;;
4500;SDS011;2263;54.654;9.410;2022-10-20T00:06:27;6.67;;;1.00;;
4500;SDS011;2263;54.654;9.410;2022-10-20T00:08:55;1.50;;;1.10;;
4500;SDS011;2263;54.654;9.410;2022-10-20T00:11:24;1.60;;;1.43;;
4500;SDS011;2263;54.654;9.410;2022-10-20T00:13:52;2.33;;;1.23;;
4500;SDS011;2263;54.654;9.410;2022-10-20T00:16:20;1.23;;;0.83;;
4500;SDS011;2263;54.654;9.410;2022-10-20T00:18:50;1.53;;;1.43;;
4500;SDS011;2263;54.654;9.410;2022-10-20T00:21:18;1.40;;;1.17;;
4500;SDS011;2263;54.654;9.410;2022-10-20T00:23:48;1.20;;;0.90;;
4500;SDS011;2263;54.654;9.410;2022-10-20T00:26:16;8.60;;;1.63;;
4500;SDS011;2263;54.654;9.410;2022-10-20T00:28:45;2.03;;;1.60;;
4500;SDS011;2263;54.654;9.410;2022-10-20T00:31:13;3.90;;;1.50;;
4500;SDS011;2263;54.654;9.410;2022-10-20T00:33:41;1.60;;;1.33;;
4500;SDS011;2263;54.654;9.410;2022-10-20T00:36:10;1.50;;;1.10;;
4500;SDS011;2263;54.654;9.410;2022-10-20T00:38:39;1.83;;;1.10;;
4500;SDS011;2263;54.654;9.410;2022-10-20T00:41:07;2.00;;;1.80;;
4500;SDS011;2263;54.654;9.410;2022-10-20T00:46:20;3.20;;;1.73;;
4500;SDS011;2263;54.654;9.410;2022-10-20T00:48:59;1.57;;;1.47;;
4500;SDS011;2263;54.654;9.410;2022-10-20T00:51:48;1.63;;;1.30;;
4500;SDS011;2263;54.654;9.410;2022-10-20T00:54:21;1.40;;;1.10;;
4500;SDS011;2263;54.654;9.410;2022-10-20T00:56:51;2.80;;;1.30;;
4500;SDS011;2263;54.654;9.410;2022-10-20T00:59:20;2.17;;;1.43;;
4500;SDS011;2263;54.654;9.410;2022-10-20T01:01:51;1.90;;;1.63;;
4500;SDS011;2263;54.654;9.410;2022-10-20T01:04:19;2.97;;;1.63;;
4500;SDS011;2263;54.654;9.410;2022-10-20T01:06:46;1.70;;;1.30;;
4500;SDS011;2263;54.654;9.410;2022-10-20T01:09:13;1.73;;;1.47;;
4500;SDS011;2263;54.654;9.410;2022-10-20T01:11:43;1.40;;;1.30;;
4500;SDS011;2263;54.654;9.410;2022-10-20T01:14:21;2.97;;;1.30;;
4500;SDS011;2263;54.654;9.410;2022-10-20T01:28:16;4.70;;;1.40;;
4500;SDS011;2263;54.654;9.410;2022-10-20T01:30:52;2.90;;;1.40;;
4500;SDS011;2263;54.654;9.410;2022-10-20T01:36:04;1.40;;;1.20;;
4500;SDS011;2263;54.654;9.410;2022-10-20T01:38:43;1.50;;;1.07;;
4500;SDS011;2263;54.654;9.410;2022-10-20T01:41:25;1.53;;;1.10;;
4500;SDS011;2263;54.654;9.410;2022-10-20T01:43:53;2.53;;;1.60;;
4500;SDS011;2263;54.654;9.410;2022-10-20T01:46:22;2.57;;;1.20;;
4500;SDS011;2263;54.654;9.410;2022-10-20T01:48:52;1.30;;;1.10;;
4500;SDS011;2263;54.654;9.410;2022-10-20T01:51:22;3.40;;;1.60;;
4500;SDS011;2263;54.654;9.410;2022-10-20T01:53:49;5.10;;;1.57;;
4500;SDS011;2263;54.654;9.410;2022-10-20T01:56:17;2.10;;;1.30;;
4500;SDS011;2263;54.654;9.410;2022-10-20T02:07:35;2.20;;;1.63;;
4500;SDS011;2263;54.654;9.410;2022-10-20T02:10:11;1.60;;;1.50;;
4500;SDS011;2263;54.654;9.410;2022-10-20T02:12:42;3.60;;;3.30;;
4500;SDS011;2263;54.654;9.410;2022-10-20T02:15:15;1.50;;;1.40;;
4500;SDS011;2263;54.654;9.410;2022-10-20T02:17:46;1.90;;;1.77;;
4500;SDS011;2263;54.654;9.410;2022-10-20T02:20:16;2.50;;;1.80;;
4500;SDS011;2263;54.654;9.410;2022-10-20T02:22:44;1.80;;;1.70;;
4500;SDS011;2263;54.654;9.410;2022-10-20T02:25:12;3.37;;;2.50;;
4500;SDS011;2263;54.654;9.410;2022-10-20T02:27:41;3.20;;;1.83;;
4500;SDS011;2263;54.654;9.410;2022-10-20T02:30:14;2.07;;;1.87;;
4500;SDS011;2263;54.654;9.410;2022-10-20T02:32:43;2.50;;;2.30;;
4500;SDS011;2263;54.654;9.410;2022-10-20T02:35:18;4.00;;;1.90;;
4500;SDS011;2263;54.654;9.410;2022-10-20T02:37:55;4.43;;;2.23;;
4500;SDS011;2263;54.654;9.410;2022-10-20T02:40:22;4.20;;;2.40;;
4500;SDS011;2263;54.654;9.410;2022-10-20T02:42:50;2.63;;;2.43;;
4500;SDS011;2263;54.654;9.410;2022-10-20T02:45:17;2.93;;;2.73;;
4500;SDS011;2263;54.654;9.410;2022-10-20T02:47:44;2.60;;;2.10;;
4500;SDS011;2263;54.654;9.410;2022-10-20T02:50:11;2.37;;;2.10;;
4500;SDS011;2263;54.654;9.410;2022-10-20T02:52:39;3.33;;;2.60;;
4500;SDS011;2263;54.654;9.410;2022-10-20T02:55:06;4.77;;;3.10;;
4500;SDS011;2263;54.654;9.410;2022-10-20T02:57:33;9.70;;;2.47;;
4500;SDS011;2263;54.654;9.410;2022-10-20T03:00:01;4.23;;;2.73;;
4500;SDS011;2263;54.654;9.410;2022-10-20T03:02:29;2.87;;;2.63;;
4500;SDS011;2263;54.654;9.410;2022-10-20T03:04:56;3.40;;;2.63;;
4500;SDS011;2263;54.654;9.410;2022-10-20T03:07:23;2.83;;;2.63;;
4500;SDS011;2263;54.654;9.410;2022-10-20T03:09:51;6.03;;;2.87;;
4500;SDS011;2263;54.654;9.410;2022-10-20T03:12:18;3.87;;;2.80;;
4500;SDS011;2263;54.654;9.410;2022-10-20T03:14:45;2.93;;;2.73;;
4500;SDS011;2263;54.654;9.410;2022-10-20T03:17:12;3.23;;;2.93;;
4500;SDS011;2263;54.654;9.410;2022-10-20T03:19:40;3.30;;;3.00;;
4500;SDS011;2263;54.654;9.410;2022-10-20T03:22:07;3.03;;;2.83;;
4500;SDS011;2263;54.654;9.410;2022-10-20T03:24:34;3.23;;;3.00;;
4500;SDS011;2263;54.654;9.410;2022-10-20T03:27:01;3.80;;;3.40;;
4500;SDS011;2263;54.654;9.410;2022-10-20T03:29:28;3.43;;;3.13;;
4500;SDS011;2263;54.654;9.410;2022-10-20T03:31:55;4.60;;;3.03;;
4500;SDS011;2263;54.654;9.410;2022-10-20T03:34:22;3.20;;;2.90;;
4500;SDS011;2263;54.654;9.410;2022-10-20T03:36:50;5.83;;;3.20;;
4500;SDS011;2263;54.654;9.410;2022-10-20T03:39:17;3.53;;;2.60;;
4500;SDS011;2263;54.654;9.410;2022-10-20T03:41:44;3.33;;;3.13;;
4500;SDS011;2263;54.654;9.410;2022-10-20T03:44:11;2.73;;;2.53;;
4500;SDS011;2263;54.654;9.410;2022-10-20T03:46:39;3.00;;;2.80;;
4500;SDS011;2263;54.654;9.410;2022-10-20T03:49:06;3.63;;;3.43;;
4500;SDS011;2263;54.654;9.410;2022-10-20T03:51:33;3.63;;;2.80;;
4500;SDS011;2263;54.654;9.410;2022-10-20T03:54:00;3.40;;;3.10;;
4500;SDS011;2263;54.654;9.410;2022-10-20T03:56:27;3.50;;;3.20;;
4500;SDS011;2263;54.654;9.410;2022-10-20T03:58:54;2.77;;;2.57;;
4500;SDS011;2263;54.654;9.410;2022-10-20T04:01:22;4.53;;;3.93;;
4500;SDS011;2263;54.654;9.410;2022-10-20T04:03:54;5.10;;;4.37;;
4500;SDS011;2263;54.654;9.410;2022-10-20T04:06:21;3.70;;;3.40;;
4500;SDS011;2263;54.654;9.410;2022-10-20T04:08:48;4.30;;;2.93;;
4500;SDS011;2263;54.654;9.410;2022-10-20T04:11:15;3.13;;;2.90;;
4500;SDS011;2263;54.654;9.410;2022-10-20T04:13:43;3.23;;;2.97;;
4500;SDS011;2263;54.654;9.410;2022-10-20T04:16:10;4.07;;;3.20;;
4500;SDS011;2263;54.654;9.410;2022-10-20T04:18:37;4.23;;;3.47;;
4500;SDS011;2263;54.654;9.410;2022-10-20T04:21:04;2.80;;;2.50;;
4500;SDS011;2263;54.654;9.410;2022-10-20T04:23:31;3.33;;;2.70;;
4500;SDS011;2263;54.654;9.410;2022-10-20T04:25:58;3.20;;;3.00;;
4500;SDS011;2263;54.654;9.410;2022-10-20T04:28:26;3.90;;;3.10;;
4500;SDS011;2263;54.654;9.410;2022-10-20T04:30:53;3.70;;;2.90;;
4500;SDS011;2263;54.654;9.410;2022-10-20T04:33:22;4.00;;;2.93;;
4500;SDS011;2263;54.654;9.410;2022-10-20T04:35:55;3.70;;;3.20;;
4500;SDS011;2263;54.654;9.410;2022-10-20T04:38:26;3.20;;;2.90;;
4500;SDS011;2263;54.654;9.410;2022-10-20T04:40:55;4.03;;;2.30;;
4500;SDS011;2263;54.654;9.410;2022-10-20T04:43:29;4.53;;;3.00;;
4500;SDS011;2263;54.654;9.410;2022-10-20T04:46:01;3.40;;;2.43;;
4500;SDS011;2263;54.654;9.410;2022-10-20T04:48:34;2.37;;;2.17;;
4500;SDS011;2263;54.654;9.410;2022-10-20T04:51:06;5.30;;;3.50;;
4500;SDS011;2263;54.654;9.410;2022-10-20T04:53:35;12.87;;;4.23;;
4500;SDS011;2263;54.654;9.410;2022-10-20T04:56:03;2.80;;;2.60;;
4500;SDS011;2263;54.654;9.410;2022-10-20T04:58:32;4.67;;;3.17;;
4500;SDS011;2263;54.654;9.410;2022-10-20T05:01:00;4.23;;;3.00;;
4500;SDS011;2263;54.654;9.410;2022-10-20T05:03:34;4.17;;;3.03;;
4500;SDS011;2263;54.654;9.410;2022-10-20T05:06:19;2.93;;;2.73;;
4500;SDS011;2263;54.654;9.410;2022-10-20T05:08:52;2.67;;;2.37;;
4500;SDS011;2263;54.654;9.410;2022-10-20T05:11:21;3.87;;;2.77;;
4500;SDS011;2263;54.654;9.410;2022-10-20T05:13:49;4.00;;;2.73;;
4500;SDS011;2263;54.654;9.410;2022-10-20T05:16:16;3.00;;;2.67;;
4500;SDS011;2263;54.654;9.410;2022-10-20T05:18:44;3.13;;;2.83;;
4500;SDS011;2263;54.654;9.410;2022-10-20T05:21:13;2.77;;;2.57;;
4500;SDS011;2263;54.654;9.410;2022-10-20T05:23:42;2.80;;;2.60;;
4500;SDS011;2263;54.654;9.410;2022-10-20T05:26:16;2.87;;;2.23;;
4500;SDS011;2263;54.654;9.410;2022-10-20T05:28:45;3.20;;;2.90;;
4500;SDS011;2263;54.654;9.410;2022-10-20T05:31:14;2.60;;;2.40;;
4500;SDS011;2263;54.654;9.410;2022-10-20T05:33:47;5.50;;;2.77;;
4500;SDS011;2263;54.654;9.410;2022-10-20T05:36:17;3.17;;;2.73;;
4500;SDS011;2263;54.654;9.410;2022-10-20T05:38:47;3.57;;;2.67;;
4500;SDS011;2263;54.654;9.410;2022-10-20T05:41:16;5.70;;;2.50;;
4500;SDS011;2263;54.654;9.410;2022-10-20T05:43:48;3.97;;;2.30;;
4500;SDS011;2263;54.654;9.410;2022-10-20T05:46:29;2.27;;;2.07;;
4500;SDS011;2263;54.654;9.410;2022-10-20T05:48:58;2.90;;;2.67;;
4500;SDS011;2263;54.654;9.410;2022-10-20T05:51:28;2.37;;;2.17;;
4500;SDS011;2263;54.654;9.410;2022-10-20T05:53:57;4.07;;;3.77;;
4500;SDS011;2263;54.654;9.410;2022-10-20T05:56:25;1.90;;;1.80;;
4500;SDS011;2263;54.654;9.410;2022-10-20T05:58:53;3.17;;;2.87;;
4500;SDS011;2263;54.654;9.410;2022-10-20T06:01:22;6.00;;;3.27;;
4500;SDS011;2263;54.654;9.410;2022-10-20T06:03:51;2.83;;;2.30;;
4500;SDS011;2263;54.654;9.410;2022-10-20T06:06:22;2.40;;;2.20;;
4500;SDS011;2263;54.654;9.410;2022-10-20T06:08:51;5.03;;;2.27;;
4500;SDS011;2263;54.654;9.410;2022-10-20T06:11:19;3.90;;;1.93;;
4500;SDS011;2263;54.654;9.410;2022-10-20T06:13:47;2.97;;;2.40;;
4500;SDS011;2263;54.654;9.410;2022-10-20T06:16:22;4.10;;;2.33;;
4500;SDS011;2263;54.654;9.410;2022-10-20T06:18:51;5.10;;;2.10;;
4500;SDS011;2263;54.654;9.410;2022-10-20T06:21:21;2.40;;;2.20;;
4500;SDS011;2263;54.654;9.410;2022-10-20T06:23:50;4.00;;;1.97;;
4500;SDS011;2263;54.654;9.410;2022-10-20T06:26:18;3.63;;;1.80;;
4500;SDS011;2263;54.654;9.410;2022-10-20T06:28:51;1.80;;;1.70;;
4500;SDS011;2263;54.654;9.410;2022-10-20T06:31:25;1.97;;;1.77;;
4500;SDS011;2263;54.654;9.410;2022-10-20T06:33:54;2.87;;;2.67;;
4500;SDS011;2263;54.654;9.410;2022-10-20T06:36:23;2.47;;;1.90;;
4500;SDS011;2263;54.654;9.410;2022-10-20T06:38:55;1.97;;;1.87;;
4500;SDS011;2263;54.654;9.410;2022-10-20T06:41:24;3.00;;;1.80;;
4500;SDS011;2263;54.654;9.410;2022-10-20T06:43:52;2.57;;;2.30;;
4500;SDS011;2263;54.654;9.410;2022-10-20T06:46:26;2.17;;;1.50;;
4500;SDS011;2263;54.654;9.410;2022-10-20T06:48:58;3.20;;;1.90;;
4500;SDS011;2263;54.654;9.410;2022-10-20T06:51:26;1.80;;;1.50;;
4500;SDS011;2263;54.654;9.410;2022-10-20T06:53:54;2.20;;;2.00;;
4500;SDS011;2263;54.654;9.410;2022-10-20T06:56:24;2.13;;;2.03;;
4500;SDS011;2263;54.654;9.410;2022-10-20T06:58:54;2.40;;;2.07;;
4500;SDS011;2263;54.654;9.410;2022-10-20T07:01:24;2.20;;;1.60;;
4500;SDS011;2263;54.654;9.410;2022-10-20T07:03:53;3.00;;;2.40;;
4500;SDS011;2263;54.654;9.410;2022-10-20T07:06:27;2.43;;;2.27;;
4500;SDS011;2263;54.654;9.410;2022-10-20T07:08:56;2.90;;;2.23;;
4500;SDS011;2263;54.654;9.410;2022-10-20T07:11:25;2.10;;;1.53;;
4500;SDS011;2263;54.654;9.410;2022-10-20T07:13:53;4.33;;;2.10;;
4500;SDS011;2263;54.654;9.410;2022-10-20T07:16:23;1.60;;;1.50;;
4500;SDS011;2263;54.654;9.410;2022-10-20T07:18:52;3.53;;;2.30;;
4500;SDS011;2263;54.654;9.410;2022-10-20T07:21:21;2.33;;;1.77;;
4500;SDS011;2263;54.654;9.410;2022-10-20T07:24:00;3.07;;;2.10;;
4500;SDS011;2263;54.654;9.410;2022-10-20T07:26:29;2.80;;;1.73;;
4500;SDS011;2263;54.654;9.410;2022-10-20T07:28:59;2.03;;;1.43;;
4500;SDS011;2263;54.654;9.410;2022-10-20T07:31:29;2.80;;;1.67;;
4500;SDS011;2263;54.654;9.410;2022-10-20T07:34:05;4.73;;;1.70;;
4500;SDS011;2263;54.654;9.410;2022-10-20T07:36:50;2.60;;;1.70;;
4500;SDS011;2263;54.654;9.410;2022-10-20T07:39:21;1.43;;;1.10;;
4500;SDS011;2263;54.654;9.410;2022-10-20T07:41:52;3.90;;;1.63;;
4500;SDS011;2263;54.654;9.410;2022-10-20T07:44:19;2.50;;;1.20;;
4500;SDS011;2263;54.654;9.410;2022-10-20T07:46:46;2.20;;;1.80;;
4500;SDS011;2263;54.654;9.410;2022-10-20T07:49:14;3.70;;;1.47;;
4500;SDS011;2263;54.654;9.410;2022-10-20T07:52:01;5.63;;;2.07;;
4500;SDS011;2263;54.654;9.410;2022-10-20T07:54:28;6.40;;;2.20;;
4500;SDS011;2263;54.654;9.410;2022-10-20T07:56:55;1.67;;;1.47;;
4500;SDS011;2263;54.654;9.410;2022-10-20T07:59:22;2.70;;;1.37;;
4500;SDS011;2263;54.654;9.410;2022-10-20T08:01:49;3.63;;;1.90;;
4500;SDS011;2263;54.654;9.410;2022-10-20T08:04:22;2.37;;;1.00;;
4500;SDS011;2263;54.654;9.410;2022-10-20T08:06:50;2.77;;;1.50;;
4500;SDS011;2263;54.654;9.410;2022-10-20T08:09:17;2.43;;;1.50;;
4500;SDS011;2263;54.654;9.410;2022-10-20T08:11:44;1.43;;;1.33;;
4500;SDS011;2263;54.654;9.410;2022-10-20T08:14:11;3.87;;;1.90;;
4500;SDS011;2263;54.654;9.410;2022-10-20T08:16:38;1.93;;;1.30;;
4500;SDS011;2263;54.654;9.410;2022-10-20T08:19:10;2.17;;;1.93;;
4500;SDS011;2263;54.654;9.410;2022-10-20T08:21:52;2.13;;;1.80;;
4500;SDS011;2263;54.654;9.410;2022-10-20T08:24:22;2.50;;;1.13;;
4500;SDS011;2263;54.654;9.410;2022-10-20T08:26:49;2.67;;;1.00;;
4500;SDS011;2263;54.654;9.410;2022-10-20T08:29:17;1.60;;;1.40;;
4500;SDS011;2263;54.654;9.410;2022-10-20T08:31:45;3.50;;;1.77;;
4500;SDS011;2263;54.654;9.410;2022-10-20T08:34:13;1.53;;;1.40;;
4500;SDS011;2263;54.654;9.410;2022-10-20T08:36:41;2.30;;;1.17;;
4500;SDS011;2263;54.654;9.410;2022-10-20T08:39:08;4.37;;;1.77;;
4500;SDS011;2263;54.654;9.410;2022-10-20T08:41:36;2.17;;;1.97;;
4500;SDS011;2263;54.654;9.410;2022-10-20T08:44:31;2.27;;;1.33;;
4500;SDS011;2263;54.654;9.410;2022-10-20T08:47:02;3.13;;;1.80;;
4500;SDS011;2263;54.654;9.410;2022-10-20T08:49:37;2.80;;;1.10;;
4500;SDS011;2263;54.654;9.410;2022-10-20T08:52:08;1.57;;;1.43;;
4500;SDS011;2263;54.654;9.410;2022-10-20T08:54:40;3.97;;;2.00;;
4500;SDS011;2263;54.654;9.410;2022-10-20T08:59:51;2.60;;;2.40;;
4500;SDS011;2263;54.654;9.410;2022-10-20T09:02:20;3.87;;;1.80;;
4500;SDS011;2263;54.654;9.410;2022-10-20T09:04:52;1.90;;;1.80;;
4500;SDS011;2263;54.654;9.410;2022-10-20T09:07:26;2.43;;;1.80;;
4500;SDS011;2263;54.654;9.410;2022-10-20T09:10:02;4.03;;;1.50;;
4500;SDS011;2263;54.654;9.410;2022-10-20T09:12:39;1.97;;;1.43;;
4500;SDS011;2263;54.654;9.410;2022-10-20T09:15:12;2.10;;;1.73;;
4500;SDS011;2263;54.654;9.410;2022-10-20T09:17:45;3.77;;;1.90;;
4500;SDS011;2263;54.654;9.410;2022-10-20T09:23:08;2.10;;;1.63;;
4500;SDS011;2263;54.654;9.410;2022-10-20T09:26:08;1.90;;;1.37;;
4500;SDS011;2263;54.654;9.410;2022-10-20T09:29:10;3.43;;;1.87;;
4500;SDS011;2263;54.654;9.410;2022-10-20T09:31:48;2.83;;;1.50;;
4500;SDS011;2263;54.654;9.410;2022-10-20T09:34:29;5.20;;;2.20;;
4500;SDS011;2263;54.654;9.410;2022-10-20T09:39:38;1.50;;;1.40;;
4500;SDS011;2263;54.654;9.410;2022-10-20T09:42:23;1.60;;;1.47;;
4500;SDS011;2263;54.654;9.410;2022-10-20T09:44:55;13.33;;;2.50;;
4500;SDS011;2263;54.654;9.410;2022-10-20T09:47:45;6.80;;;3.00;;
4500;SDS011;2263;54.654;9.410;2022-10-20T09:50:18;3.40;;;2.10;;
4500;SDS011;2263;54.654;9.410;2022-10-20T09:52:54;5.73;;;2.27;;
4500;SDS011;2263;54.654;9.410;2022-10-20T09:55:30;2.50;;;2.30;;
4500;SDS011;2263;54.654;9.410;2022-10-20T09:58:00;6.90;;;2.07;;
4500;SDS011;2263;54.654;9.410;2022-10-20T10:00:35;4.57;;;2.27;;
4500;SDS011;2263;54.654;9.410;2022-10-20T10:05:51;1.83;;;1.73;;
4500;SDS011;2263;54.654;9.410;2022-10-20T10:08:19;3.03;;;2.40;;
4500;SDS011;2263;54.654;9.410;2022-10-20T10:11:04;5.13;;;2.10;;
4500;SDS011;2263;54.654;9.410;2022-10-20T10:13:41;4.43;;;2.43;;
4500;SDS011;2263;54.654;9.410;2022-10-20T10:16:11;8.13;;;2.73;;
4500;SDS011;2263;54.654;9.410;2022-10-20T10:18:41;2.90;;;2.10;;
4500;SDS011;2263;54.654;9.410;2022-10-20T10:21:20;2.13;;;1.93;;
4500;SDS011;2263;54.654;9.410;2022-10-20T10:23:52;6.00;;;4.00;;
4500;SDS011;2263;54.654;9.410;2022-10-20T10:29:24;4.57;;;1.90;;
4500;SDS011;2263;54.654;9.410;2022-10-20T10:31:56;7.23;;;2.17;;
4500;SDS011;2263;54.654;9.410;2022-10-20T10:34:34;7.30;;;1.90;;
4500;SDS011;2263;54.654;9.410;2022-10-20T10:37:07;2.17;;;2.07;;
4500;SDS011;2263;54.654;9.410;2022-10-20T10:39:39;5.07;;;2.20;;
4500;SDS011;2263;54.654;9.410;2022-10-20T10:50:58;2.07;;;1.57;;
4500;SDS011;2263;54.654;9.410;2022-10-20T10:53:35;5.80;;;1.70;;
4500;SDS011;2263;54.654;9.410;2022-10-20T10:56:31;3.23;;;2.10;;
4500;SDS011;2263;54.654;9.410;2022-10-20T10:59:55;2.93;;;1.47;;
4500;SDS011;2263;54.654;9.410;2022-10-20T11:02:15;2.70;;;1.70;;
4500;SDS011;2263;54.654;9.410;2022-10-20T11:10:28;5.73;;;1.40;;
4500;SDS011;2263;54.654;9.410;2022-10-20T11:13:21;4.13;;;1.57;;
4500;SDS011;2263;54.654;9.410;2022-10-20T11:26:36;2.00;;;1.37;;
4500;SDS011;2263;54.654;9.410;2022-10-20T11:29:15;2.50;;;1.50;;
4500;SDS011;2263;54.654;9.410;2022-10-20T11:31:56;1.50;;;1.40;;
4500;SDS011;2263;54.654;9.410;2022-10-20T11:34:37;1.40;;;1.10;;
4500;SDS011;2263;54.654;9.410;2022-10-20T11:37:21;3.60;;;1.50;;
4500;SDS011;2263;54.654;9.410;2022-10-20T11:45:25;1.73;;;1.63;;
4500;SDS011;2263;54.654;9.410;2022-10-20T11:56:45;1.40;;;1.20;;
4500;SDS011;2263;54.654;9.410;2022-10-20T11:59:42;1.87;;;1.40;;
4500;SDS011;2263;54.654;9.410;2022-10-20T12:05:44;4.47;;;1.40;;
4500;SDS011;2263;54.654;9.410;2022-10-20T12:11:34;2.17;;;1.70;;
4500;SDS011;2263;54.654;9.410;2022-10-20T12:14:09;1.40;;;1.10;;
4500;SDS011;2263;54.654;9.410;2022-10-20T12:34:54;1.77;;;1.50;;
4500;SDS011;2263;54.654;9.410;2022-10-20T12:37:24;3.00;;;1.60;;
4500;SDS011;2263;54.654;9.410;2022-10-20T12:39:55;1.60;;;1.33;;
4500;SDS011;2263;54.654;9.410;2022-10-20T12:42:30;2.10;;;1.57;;
4500;SDS011;2263;54.654;9.410;2022-10-20T12:47:31;4.77;;;1.60;;
4500;SDS011;2263;54.654;9.410;2022-10-20T12:50:05;4.30;;;1.27;;
4500;SDS011;2263;54.654;9.410;2022-10-20T12:52:44;3.80;;;2.50;;
4500;SDS011;2263;54.654;9.410;2022-10-20T12:55:19;1.80;;;1.40;;
4500;SDS011;2263;54.654;9.410;2022-10-20T12:58:09;1.60;;;1.03;;
4500;SDS011;2263;54.654;9.410;2022-10-20T13:05:57;1.93;;;1.20;;
4500;SDS011;2263;54.654;9.410;2022-10-20T13:08:26;2.33;;;1.57;;
4500;SDS011;2263;54.654;9.410;2022-10-20T13:11:51;1.33;;;0.90;;
4500;SDS011;2263;54.654;9.410;2022-10-20T13:19:17;3.20;;;1.60;;
4500;SDS011;2263;54.654;9.410;2022-10-20T13:21:49;3.10;;;1.57;;
4500;SDS011;2263;54.654;9.410;2022-10-20T13:24:27;1.83;;;1.63;;
4500;SDS011;2263;54.654;9.410;2022-10-20T13:27:00;1.83;;;1.73;;
4500;SDS011;2263;54.654;9.410;2022-10-20T13:29:39;1.70;;;1.60;;
4500;SDS011;2263;54.654;9.410;2022-10-20T13:32:12;1.57;;;1.43;;
4500;SDS011;2263;54.654;9.410;2022-10-20T13:51:42;2.03;;;1.70;;
4500;SDS011;2263;54.654;9.410;2022-10-20T13:54:26;1.90;;;1.67;;
4500;SDS011;2263;54.654;9.410;2022-10-20T13:56:55;1.60;;;1.40;;
4500;SDS011;2263;54.654;9.410;2022-10-20T13:59:24;3.60;;;1.77;;
4500;SDS011;2263;54.654;9.410;2022-10-20T14:01:58;3.87;;;1.60;;
4500;SDS011;2263;54.654;9.410;2022-10-20T14:04:28;2.00;;;1.90;;
4500;SDS011;2263;54.654;9.410;2022-10-20T14:07:01;8.63;;;1.77;;
4500;SDS011;2263;54.654;9.410;2022-10-20T14:09:34;2.03;;;1.70;;
4500;SDS011;2263;54.654;9.410;2022-10-20T14:12:01;1.70;;;1.60;;
4500;SDS011;2263;54.654;9.410;2022-10-20T14:14:33;2.07;;;1.87;;
4500;SDS011;2263;54.654;9.410;2022-10-20T14:17:14;1.97;;;1.40;;
4500;SDS011;2263;54.654;9.410;2022-10-20T14:19:48;4.70;;;1.83;;
4500;SDS011;2263;54.654;9.410;2022-10-20T14:22:19;1.93;;;1.50;;
4500;SDS011;2263;54.654;9.410;2022-10-20T14:24:52;2.40;;;2.20;;
4500;SDS011;2263;54.654;9.410;2022-10-20T14:27:28;2.00;;;1.57;;
4500;SDS011;2263;54.654;9.410;2022-10-20T14:29:57;3.23;;;2.30;;
4500;SDS011;2263;54.654;9.410;2022-10-20T14:32:29;3.73;;;2.17;;
4500;SDS011;2263;54.654;9.410;2022-10-20T14:35:10;4.30;;;2.80;;
4500;SDS011;2263;54.654;9.410;2022-10-20T14:37:45;4.93;;;1.90;;
4500;SDS011;2263;54.654;9.410;2022-10-20T14:40:32;1.70;;;1.60;;
4500;SDS011;2263;54.654;9.410;2022-10-20T14:43:02;3.23;;;1.63;;
4500;SDS011;2263;54.654;9.410;2022-10-20T14:45:32;2.53;;;2.10;;
4500;SDS011;2263;54.654;9.410;2022-10-20T14:47:59;4.03;;;2.30;;
4500;SDS011;2263;54.654;9.410;2022-10-20T14:56:00;9.33;;;2.17;;
4500;SDS011;2263;54.654;9.410;2022-10-20T14:58:29;2.73;;;2.53;;
4500;SDS011;2263;54.654;9.410;2022-10-20T15:04:13;5.90;;;2.00;;
4500;SDS011;2263;54.654;9.410;2022-10-20T15:06:47;3.53;;;2.77;;
4500;SDS011;2263;54.654;9.410;2022-10-20T15:09:36;2.60;;;2.40;;
4500;SDS011;2263;54.654;9.410;2022-10-20T15:14:43;3.20;;;2.00;;
4500;SDS011;2263;54.654;9.410;2022-10-20T15:23:09;2.47;;;2.00;;
4500;SDS011;2263;54.654;9.410;2022-10-20T15:28:19;2.93;;;1.90;;
4500;SDS011;2263;54.654;9.410;2022-10-20T15:30:53;3.77;;;2.03;;
4500;SDS011;2263;54.654;9.410;2022-10-20T15:33:20;2.30;;;2.10;;
4500;SDS011;2263;54.654;9.410;2022-10-20T15:35:48;8.10;;;2.50;;
4500;SDS011;2263;54.654;9.410;2022-10-20T15:38:16;2.50;;;1.87;;
4500;SDS011;2263;54.654;9.410;2022-10-20T15:40:43;4.30;;;2.30;;
4500;SDS011;2263;54.654;9.410;2022-10-20T15:43:11;11.80;;;2.13;;
4500;SDS011;2263;54.654;9.410;2022-10-20T15:45:40;2.13;;;1.93;;
4500;SDS011;2263;54.654;9.410;2022-10-20T15:48:15;3.10;;;2.10;;
4500;SDS011;2263;54.654;9.410;2022-10-20T15:50:43;2.60;;;1.90;;
4500;SDS011;2263;54.654;9.410;2022-10-20T15:53:11;5.73;;;2.57;;
4500;SDS011;2263;54.654;9.410;2022-10-20T15:55:40;2.47;;;2.23;;
4500;SDS011;2263;54.654;9.410;2022-10-20T15:58:08;2.87;;;2.57;;
4500;SDS011;2263;54.654;9.410;2022-10-20T16:00:35;2.37;;;1.90;;
4500;SDS011;2263;54.654;9.410;2022-10-20T16:03:03;2.70;;;2.37;;
4500;SDS011;2263;54.654;9.410;2022-10-20T16:05:31;2.67;;;2.47;;
4500;SDS011;2263;54.654;9.410;2022-10-20T16:07:58;2.30;;;2.10;;
4500;SDS011;2263;54.654;9.410;2022-10-20T16:10:25;2.83;;;2.63;;
4500;SDS011;2263;54.654;9.410;2022-10-20T16:12:55;2.67;;;2.50;;
4500;SDS011;2263;54.654;9.410;2022-10-20T16:15:24;3.40;;;2.23;;
4500;SDS011;2263;54.654;9.410;2022-10-20T16:17:56;5.27;;;2.33;;
4500;SDS011;2263;54.654;9.410;2022-10-20T16:20:24;2.60;;;2.40;;
4500;SDS011;2263;54.654;9.410;2022-10-20T16:22:51;3.77;;;3.20;;
4500;SDS011;2263;54.654;9.410;2022-10-20T16:25:19;3.30;;;1.97;;
4500;SDS011;2263;54.654;9.410;2022-10-20T16:27:46;5.90;;;2.80;;
4500;SDS011;2263;54.654;9.410;2022-10-20T16:30:13;6.80;;;3.40;;
4500;SDS011;2263;54.654;9.410;2022-10-20T16:32:42;5.77;;;3.40;;
4500;SDS011;2263;54.654;9.410;2022-10-20T16:35:09;4.00;;;3.37;;
4500;SDS011;2263;54.654;9.410;2022-10-20T16:37:36;5.70;;;2.80;;
4500;SDS011;2263;54.654;9.410;2022-10-20T16:40:04;4.30;;;3.10;;
4500;SDS011;2263;54.654;9.410;2022-10-20T16:42:31;2.43;;;2.23;;
4500;SDS011;2263;54.654;9.410;2022-10-20T16:44:58;4.40;;;2.50;;
4500;SDS011;2263;54.654;9.410;2022-10-20T16:47:26;2.60;;;2.33;;
4500;SDS011;2263;54.654;9.410;2022-10-20T16:49:53;2.87;;;2.67;;
4500;SDS011;2263;54.654;9.410;2022-10-20T16:52:20;2.37;;;2.20;;
4500;SDS011;2263;54.654;9.410;2022-10-20T16:54:47;2.83;;;2.63;;
4500;SDS011;2263;54.654;9.410;2022-10-20T16:57:14;3.43;;;2.50;;
4500;SDS011;2263;54.654;9.410;2022-10-20T16:59:41;2.60;;;2.40;;
4500;SDS011;2263;54.654;9.410;2022-10-20T17:02:15;3.23;;;2.63;;
4500;SDS011;2263;54.654;9.410;2022-10-20T17:04:46;2.37;;;2.17;;
4500;SDS011;2263;54.654;9.410;2022-10-20T17:07:15;3.20;;;2.77;;
4500;SDS011;2263;54.654;9.410;2022-10-20T17:09:42;3.57;;;2.47;;
4500;SDS011;2263;54.654;9.410;2022-10-20T17:12:09;5.30;;;2.97;;
4500;SDS011;2263;54.654;9.410;2022-10-20T17:14:37;3.30;;;2.70;;
4500;SDS011;2263;54.654;9.410;2022-10-20T17:17:06;3.47;;;3.20;;
4500;SDS011;2263;54.654;9.410;2022-10-20T17:19:33;2.93;;;2.70;;
4500;SDS011;2263;54.654;9.410;2022-10-20T17:22:00;4.10;;;3.90;;
4500;SDS011;2263;54.654;9.410;2022-10-20T17:24:27;4.27;;;2.80;;
4500;SDS011;2263;54.654;9.410;2022-10-20T17:26:55;3.13;;;2.93;;
4500;SDS011;2263;54.654;9.410;2022-10-20T17:29:22;3.17;;;2.97;;
4500;SDS011;2263;54.654;9.410;2022-10-20T17:31:51;3.63;;;3.33;;
4500;SDS011;2263;54.654;9.410;2022-10-20T17:34:18;3.60;;;3.30;;
4500;SDS011;2263;54.654;9.410;2022-10-20T17:36:51;4.13;;;3.93;;
4500;SDS011;2263;54.654;9.410;2022-10-20T17:39:19;3.17;;;2.87;;
4500;SDS011;2263;54.654;9.410;2022-10-20T17:41:47;3.97;;;3.43;;
4500;SDS011;2263;54.654;9.410;2022-10-20T17:44:14;7.87;;;3.40;;
4500;SDS011;2263;54.654;9.410;2022-10-20T17:46:41;3.97;;;3.67;;
4500;SDS011;2263;54.654;9.410;2022-10-20T17:49:09;5.53;;;3.90;;
4500;SDS011;2263;54.654;9.410;2022-10-20T17:51:36;5.70;;;4.37;;
4500;SDS011;2263;54.654;9.410;2022-10-20T17:54:03;4.37;;;3.63;;
4500;SDS011;2263;54.654;9.410;2022-10-20T17:56:35;3.90;;;3.13;;
4500;SDS011;2263;54.654;9.410;2022-10-20T17:59:04;3.43;;;3.23;;
4500;SDS011;2263;54.654;9.410;2022-10-20T18:01:37;3.07;;;2.83;;
4500;SDS011;2263;54.654;9.410;2022-10-20T18:04:07;3.80;;;3.20;;
4500;SDS011;2263;54.654;9.410;2022-10-20T18:06:38;4.00;;;3.70;;
4500;SDS011;2263;54.654;9.410;2022-10-20T18:09:10;3.73;;;3.37;;
4500;SDS011;2263;54.654;9.410;2022-10-20T18:11:41;4.23;;;3.70;;
4500;SDS011;2263;54.654;9.410;2022-10-20T18:14:13;3.50;;;3.23;;